Time,TemperatureF,DewpointF,PressureIn,WindDirection,WindDirectionDegrees,WindSpeedMPH,WindSpeedGustMPH,Humidity,HourlyPrecipIn,Conditions,Clouds,dailyrainin,SoftwareType,DateUTC
2014-02-14 01:10:00,35.0,27.0,-100.00,East,90,13.0,14.0,72,-99.99,,,-99.99,,2014-02-14 09:10:00,
2014-02-14 02:10:00,35.0,27.0,-100.00,SE,135,1.0,2.0,72,-99.99,,,-99.99,,2014-02-14 10:10:00,
2014-02-14 03:10:00,34.0,32.0,-100.00,ESE,110,7.0,7.0,92,-99.99,,,-99.99,,2014-02-14 11:10:00,
2014-02-14 04:10:00,33.0,32.0,-100.00,East,85,6.0,7.0,96,-99.99,,,-99.99,,2014-02-14 12:10:00,
2014-02-14 05:10:00,33.0,32.0,-100.00,East,90,3.0,6.0,96,-99.99,,,-99.99,,2014-02-14 13:10:00,
2014-02-14 06:10:00,34.0,33.0,-100.00,ENE,75,3.0,6.0,96,-99.99,,,-99.99,,2014-02-14 14:10:00,
2014-02-14 07:10:00,34.0,34.0,-100.00,SSE,165,3.0,6.0,100,-99.99,,,-99.99,,2014-02-14 15:10:00,
2014-02-14 08:10:00,35.0,35.0,-100.00,WNW,295,2.0,6.0,100,-99.99,,,-99.99,,2014-02-14 16:10:00,
2014-02-14 09:10:00,34.0,33.0,-100.00,West,275,12.0,15.0,96,-99.99,,,-99.99,,2014-02-14 17:10:00,
2014-02-14 10:10:00,33.0,33.0,-100.00,West,280,10.0,14.0,100,-99.99,,,-99.99,,2014-02-14 18:10:00,
2014-02-14 11:10:00,34.0,34.0,-100.00,West,265,8.0,12.0,100,-99.99,,,-99.99,,2014-02-14 19:10:00,
2014-02-14 12:10:00,37.0,36.0,-100.00,WNW,290,9.0,12.0,96,-99.99,,,-99.99,,2014-02-14 20:10:00,
2014-02-14 13:10:00,41.0,40.0,-100.00,West,275,8.0,10.0,96,-99.99,,,-99.99,,2014-02-14 21:10:00,
2014-02-14 14:10:00,45.0,36.0,-100.00,WNW,285,13.0,16.0,70,-99.99,,,-99.99,,2014-02-14 22:10:00,
2014-02-14 15:10:00,44.0,37.0,-100.00,West,280,12.0,16.0,76,-99.99,,,-99.99,,2014-02-14 23:10:00,
2014-02-14 16:10:00,42.0,34.0,-100.00,WNW,285,13.0,15.0,73,-99.99,,,-99.99,,2014-02-15 00:10:00,
2014-02-14 17:10:00,39.0,35.0,-100.00,WSW,255,14.0,17.0,85,-99.99,,,-99.99,,2014-02-15 01:10:00,
2014-02-14 18:10:00,38.0,31.0,-100.00,West,280,15.0,20.0,75,-99.99,,,-99.99,,2014-02-15 02:10:00,
2014-02-14 19:10:00,37.0,32.0,-100.00,West,265,21.0,25.0,81,-99.99,,,-99.99,,2014-02-15 03:10:00,
2014-02-14 20:10:00,36.0,32.0,-100.00,West,265,14.0,16.0,85,-99.99,,,-99.99,,2014-02-15 04:10:00,
2014-02-14 21:10:00,35.0,31.0,-100.00,West,260,7.0,10.0,85,-99.99,,,-99.99,,2014-02-15 05:10:00,
2014-02-14 22:10:00,35.0,31.0,-100.00,SW,230,6.0,13.0,85,-99.99,,,-99.99,,2014-02-15 06:10:00,
2014-02-14 23:10:00,33.0,29.0,-100.00,WSW,255,17.0,24.0,85,-99.99,,,-99.99,,2014-02-15 07:10:00,